createdAt,value
2023-04-21T00:00:53.646Z,3.80
2023-04-21T00:03:22.573Z,3.90
2023-04-21T00:05:50.791Z,4.00
2023-04-21T00:08:18.188Z,4.20
2023-04-21T00:10:46.564Z,4.10
2023-04-21T00:13:13.594Z,4.00
2023-04-21T00:15:40.280Z,3.90
2023-04-21T00:18:07.431Z,4.00
2023-04-21T00:20:34.089Z,4.10
2023-04-21T00:23:00.654Z,4.10
2023-04-21T00:25:27.375Z,4.00
2023-04-21T00:27:53.989Z,4.00
2023-04-21T00:30:20.638Z,4.00
2023-04-21T00:32:47.366Z,4.00
2023-04-21T00:35:14.012Z,4.10
2023-04-21T00:37:41.552Z,4.10
2023-04-21T00:40:09.025Z,4.10
2023-04-21T00:42:35.730Z,4.00
2023-04-21T00:45:05.680Z,4.10
2023-04-21T00:47:32.350Z,4.10
2023-04-21T00:49:59.438Z,4.00
2023-04-21T00:52:27.968Z,4.10
2023-04-21T00:54:55.070Z,4.30
2023-04-21T00:57:21.701Z,4.20
2023-04-21T00:59:49.665Z,4.20
2023-04-21T01:02:17.451Z,4.20
2023-04-21T01:04:45.618Z,4.20
2023-04-21T01:07:12.711Z,4.20
2023-04-21T01:09:39.511Z,4.20
2023-04-21T01:12:08.671Z,4.20
2023-04-21T01:14:36.226Z,4.20
2023-04-21T01:17:06.083Z,4.40
2023-04-21T01:19:35.729Z,4.40
2023-04-21T01:22:03.533Z,4.30
2023-04-21T01:24:37.973Z,4.20
2023-04-21T01:27:09.486Z,4.10
2023-04-21T01:29:36.165Z,3.90
2023-04-21T01:32:08.279Z,3.90
2023-04-21T01:34:35.291Z,3.70
2023-04-21T01:37:02.017Z,3.60
2023-04-21T01:39:28.851Z,3.60
2023-04-21T01:41:57.699Z,3.40
2023-04-21T01:44:25.999Z,3.40
2023-04-21T01:46:53.107Z,3.30
2023-04-21T01:49:19.986Z,3.30
2023-04-21T01:51:46.770Z,3.40
2023-04-21T01:54:13.425Z,3.40
2023-04-21T01:56:40.208Z,3.30
2023-04-21T01:59:06.905Z,3.30
2023-04-21T02:01:33.643Z,3.20
2023-04-21T02:04:00.502Z,3.20
2023-04-21T02:06:27.203Z,3.30
2023-04-21T02:08:53.769Z,3.20
2023-04-21T02:11:20.382Z,3.10
2023-04-21T02:13:46.932Z,3.00
2023-04-21T02:16:14.379Z,3.00
2023-04-21T02:18:41.285Z,2.90
2023-04-21T02:21:08.007Z,2.90
2023-04-21T02:23:34.590Z,2.80
2023-04-21T02:26:01.171Z,2.70
2023-04-21T02:28:27.735Z,2.70
2023-04-21T02:30:54.356Z,2.60
2023-04-21T02:33:20.981Z,2.60
2023-04-21T02:35:47.541Z,2.60
2023-04-21T02:38:14.107Z,2.60
2023-04-21T02:40:41.071Z,2.50
2023-04-21T02:43:07.731Z,2.50
2023-04-21T02:45:34.332Z,2.40
2023-04-21T02:48:00.910Z,2.40
2023-04-21T02:50:27.513Z,2.40
2023-04-21T02:52:54.082Z,2.40
2023-04-21T02:55:22.451Z,2.40
2023-04-21T02:57:49.108Z,2.70
2023-04-21T03:00:16.209Z,2.60
2023-04-21T03:02:43.338Z,2.60
2023-04-21T03:05:10.552Z,2.40
2023-04-21T03:07:37.123Z,2.50
2023-04-21T03:10:03.945Z,2.40
2023-04-21T03:12:30.544Z,2.40
2023-04-21T03:14:57.129Z,2.40
2023-04-21T03:17:23.849Z,2.30
2023-04-21T03:19:50.554Z,2.30
2023-04-21T03:22:17.088Z,2.40
2023-04-21T03:24:43.637Z,2.50
2023-04-21T03:27:11.145Z,2.60
2023-04-21T03:29:37.887Z,2.60
2023-04-21T03:32:04.535Z,2.60
2023-04-21T03:34:31.105Z,2.60
2023-04-21T03:36:57.666Z,2.60
2023-04-21T03:39:24.462Z,2.60
2023-04-21T03:41:51.335Z,2.60
2023-04-21T03:44:17.840Z,2.70
2023-04-21T03:46:44.450Z,2.60
2023-04-21T03:49:11.071Z,2.60
2023-04-21T03:51:37.629Z,2.50
2023-04-21T03:54:04.205Z,2.40
2023-04-21T03:56:30.871Z,2.40
2023-04-21T03:58:57.443Z,2.40
2023-04-21T04:01:24.063Z,2.40
2023-04-21T04:03:50.791Z,2.40
2023-04-21T04:06:17.498Z,2.50
2023-04-21T04:08:44.110Z,2.40
2023-04-21T04:11:10.700Z,2.40
2023-04-21T04:13:37.251Z,2.40
2023-04-21T04:16:04.122Z,2.40
2023-04-21T04:18:30.720Z,2.40
2023-04-21T04:20:57.254Z,2.30
2023-04-21T04:23:23.817Z,2.30
2023-04-21T04:25:51.815Z,2.30
2023-04-21T04:28:18.387Z,2.30
2023-04-21T04:30:45.377Z,2.40
2023-04-21T04:33:12.002Z,2.40
2023-04-21T04:35:38.860Z,2.50
2023-04-21T04:38:07.256Z,2.40
2023-04-21T04:40:34.012Z,2.50
2023-04-21T04:43:02.558Z,2.50
2023-04-21T04:45:32.866Z,2.50
2023-04-21T04:48:00.010Z,2.50
2023-04-21T04:50:26.986Z,2.60
2023-04-21T04:52:53.569Z,2.60
2023-04-21T04:55:20.262Z,2.70
2023-04-21T04:57:46.850Z,2.80
2023-04-21T05:00:14.373Z,2.90
2023-04-21T05:02:41.521Z,2.90
2023-04-21T05:05:08.443Z,2.90
2023-04-21T05:07:35.246Z,3.10
2023-04-21T05:10:04.127Z,3.10
2023-04-21T05:12:32.250Z,3.10
2023-04-21T05:14:58.813Z,3.20
2023-04-21T05:17:25.851Z,3.20
2023-04-21T05:19:52.455Z,3.30
2023-04-21T05:22:19.009Z,3.40
2023-04-21T05:24:45.609Z,3.50
2023-04-21T05:27:12.207Z,3.60
2023-04-21T05:29:38.826Z,3.70
2023-04-21T05:32:05.889Z,3.80
2023-04-21T05:34:32.752Z,3.90
2023-04-21T05:36:59.353Z,4.00
2023-04-21T05:39:27.983Z,4.10
2023-04-21T05:41:54.568Z,4.20
